Time;durP1;ratioP1;P1;durP2;ratioP2;P2;SDS_P1;SDS_P2;PMS_P1;PMS_P2;Temp;Humidity;BMP_temperature;BMP_pressure;BME280_temperature;BME280_humidity;BME280_pressure;Samples;Min_cycle;Max_cycle;Signal;HPM_P1;HPM_P2
2022/11/21 00:00:36;;;;;;;5.73;5.23;;;;;;;11.09;81.72;93645.13;5017185;28;20214;-69
2022/11/21 00:03:02;;;;;;;5.97;5.43;;;;;;;11.03;81.90;93644.06;5023076;28;20229;-69
2022/11/21 00:05:30;;;;;;;6.73;5.93;;;;;;;11.10;81.21;93640.72;5022563;28;20202;-70
2022/11/21 00:07:56;;;;;;;6.57;5.90;;;;;;;11.10;81.61;93633.63;5019164;28;20202;-69
2022/11/21 00:10:23;;;;;;;6.37;5.87;;;;;;;11.09;81.34;93633.81;5017750;28;20198;-69
2022/11/21 00:12:54;;;;;;;6.67;6.07;;;;;;;11.20;80.91;93610.44;5014836;28;20205;-69
2022/11/21 00:15:19;;;;;;;7.43;6.10;;;;;;;11.24;80.65;93618.78;5024090;28;20214;-69
2022/11/21 00:17:44;;;;;;;7.37;6.63;;;;;;;11.22;80.68;93599.72;5025487;28;20281;-68
2022/11/21 00:20:10;;;;;;;6.70;6.07;;;;;;;11.05;81.79;93601.81;5017267;28;20215;-68
2022/11/21 00:22:36;;;;;;;6.63;5.83;;;;;;;11.08;82.35;93598.00;5024697;28;20190;-68
2022/11/21 00:25:01;;;;;;;7.30;6.10;;;;;;;11.12;82.45;93584.28;5020119;28;20206;-69
2022/11/21 00:27:27;;;;;;;8.73;6.30;;;;;;;11.02;82.41;93576.69;5033906;28;20230;-68
2022/11/21 00:29:52;;;;;;;7.60;5.50;;;;;;;11.07;81.65;93570.88;5040862;28;20660;-68
2022/11/21 00:32:18;;;;;;;5.70;5.10;;;;;;;11.06;81.64;93534.22;5041591;28;20190;-68
2022/11/21 00:34:43;;;;;;;5.37;4.60;;;;;;;11.00;82.58;93546.34;5039118;28;20984;-68
2022/11/21 00:37:08;;;;;;;4.60;4.20;;;;;;;10.88;82.38;93551.31;5041345;28;20197;-68
2022/11/21 00:39:34;;;;;;;4.67;3.60;;;;;;;11.04;82.32;93577.34;5039424;28;20296;-68
2022/11/21 00:41:59;;;;;;;5.90;5.30;;;;;;;11.09;81.66;93541.75;5041215;28;20193;-68
2022/11/21 00:44:25;;;;;;;7.17;5.23;;;;;;;11.07;81.85;93552.47;5033996;28;20194;-68
2022/11/21 00:46:50;;;;;;;6.20;5.50;;;;;;;11.30;81.02;93575.09;5040994;28;20312;-69
2022/11/21 00:49:15;;;;;;;6.10;5.50;;;;;;;11.31;80.74;93582.81;5045328;28;20216;-68
2022/11/21 00:51:41;;;;;;;6.33;5.20;;;;;;;11.29;80.88;93581.38;5034749;28;20701;-67
2022/11/21 00:54:07;;;;;;;5.80;5.20;;;;;;;11.10;81.33;93532.88;5040034;28;20196;-67
2022/11/21 00:56:33;;;;;;;5.83;5.23;;;;;;;11.00;82.06;93549.78;5038970;28;20198;-66
2022/11/21 00:58:58;;;;;;;7.03;5.30;;;;;;;10.98;82.93;93556.22;5035895;28;20235;-67
2022/11/21 01:01:24;;;;;;;6.77;5.23;;;;;;;10.96;82.98;93558.22;5035315;28;20530;-68
2022/11/21 01:03:49;;;;;;;6.73;5.40;;;;;;;10.90;83.50;93541.38;5031671;28;20285;-68
2022/11/21 01:06:15;;;;;;;6.23;5.50;;;;;;;10.95;84.19;93546.09;5046767;28;20649;-69
2022/11/21 01:08:42;;;;;;;7.47;5.47;;;;;;;11.01;83.46;93540.06;5043324;28;20198;-69
2022/11/21 01:11:14;;;;;;;5.80;5.27;;;;;;;10.84;83.37;93515.84;5038037;28;20198;-69
2022/11/21 01:13:40;;;;;;;5.83;5.30;;;;;;;10.89;83.39;93550.28;5044883;28;20216;-69
2022/11/21 01:16:16;;;;;;;6.03;5.17;;;;;;;10.96;82.78;93543.28;5040301;28;20198;-69
2022/11/21 01:18:42;;;;;;;8.17;5.73;;;;;;;10.84;82.93;93549.22;5037036;28;20557;-68
2022/11/21 01:21:12;;;;;;;6.87;4.60;;;;;;;10.87;83.26;93560.19;5040956;28;20190;-70
2022/11/21 01:23:38;;;;;;;6.60;5.73;;;;;;;10.78;83.36;93553.44;5034412;28;20191;-69
2022/11/21 01:26:05;;;;;;;7.43;5.60;;;;;;;10.73;83.76;93540.03;5040730;28;20197;-69
2022/11/21 01:28:31;;;;;;;7.03;5.53;;;;;;;10.70;84.40;93527.28;5021393;28;20296;-69
2022/11/21 01:31:25;;;;;;;5.63;5.03;;;;;;;10.77;84.50;93543.91;5020909;28;20281;-69
2022/11/21 01:33:51;;;;;;;5.87;5.23;;;;;;;10.77;84.69;93557.03;4962179;28;20200;-69
2022/11/21 01:36:30;;;;;;;6.67;5.87;;;;;;;10.79;84.25;93532.19;4962816;28;20211;-69
2022/11/21 01:39:02;;;;;;;5.60;5.10;;;;;;;10.79;83.69;93542.72;4947304;28;20284;-69
2022/11/21 01:41:34;;;;;;;7.43;4.77;;;;;;;10.81;84.04;93540.72;4969045;28;20207;-69
2022/11/21 01:44:01;;;;;;;8.43;5.33;;;;;;;10.86;83.67;93539.34;4955042;28;20200;-69
2022/11/21 01:46:27;;;;;;;5.43;4.57;;;;;;;10.71;84.32;93508.66;4949796;28;20267;-69
2022/11/21 01:49:05;;;;;;;5.83;4.57;;;;;;;10.82;84.46;93523.13;4968293;28;20691;-69
2022/11/21 01:51:30;;;;;;;9.40;6.43;;;;;;;10.85;83.56;93519.28;4953103;28;20223;-69
2022/11/21 01:54:07;;;;;;;7.90;6.10;;;;;;;10.77;83.35;93514.97;4954585;28;20247;-69
2022/11/21 01:56:39;;;;;;;6.10;5.53;;;;;;;10.75;83.71;93517.81;4949341;28;20211;-70
2022/11/21 01:59:10;;;;;;;6.40;5.80;;;;;;;10.83;83.42;93532.66;4951526;28;20287;-69
2022/11/21 02:01:36;;;;;;;5.60;5.10;;;;;;;10.82;83.21;93536.25;4961083;28;20229;-69
2022/11/21 02:04:05;;;;;;;6.07;5.47;;;;;;;10.71;83.95;93531.53;4950335;28;20201;-69
2022/11/21 02:06:32;;;;;;;6.23;5.63;;;;;;;10.66;84.46;93523.38;4963934;28;20307;-69
2022/11/21 02:08:59;;;;;;;6.77;6.13;;;;;;;10.73;85.21;93527.69;4951649;28;20571;-69
2022/11/21 02:11:31;;;;;;;6.50;5.80;;;;;;;10.79;84.83;93549.78;5009413;28;20206;-70
2022/11/21 02:13:58;;;;;;;9.60;6.63;;;;;;;11.02;83.44;93557.47;5027121;28;20218;-69
2022/11/21 02:16:25;;;;;;;8.40;6.57;;;;;;;10.95;82.65;93538.19;5016275;28;20194;-69
2022/11/21 02:18:51;;;;;;;7.07;6.37;;;;;;;10.76;83.80;93519.44;5020746;28;20220;-69
2022/11/21 02:21:52;;;;;;;7.10;6.03;;;;;;;10.81;84.26;93534.66;5022417;28;20264;-69
2022/11/21 02:24:27;;;;;;;6.77;6.07;;;;;;;10.81;84.36;93535.47;5018742;28;20576;-69
2022/11/21 02:26:53;;;;;;;7.67;6.03;;;;;;;10.79;84.54;93547.16;5021432;28;20689;-69
2022/11/21 02:29:18;;;;;;;8.50;6.37;;;;;;;10.79;85.09;93547.16;5046639;28;20223;-69
2022/11/21 02:31:44;;;;;;;7.57;6.77;;;;;;;10.80;85.01;93538.28;5044998;28;20238;-69
2022/11/21 02:34:09;;;;;;;7.87;6.93;;;;;;;10.78;85.36;93532.41;5058047;28;20228;-69
2022/11/21 02:36:42;;;;;;;9.17;6.90;;;;;;;10.77;85.71;93550.00;5051986;28;20204;-70
2022/11/21 02:39:12;;;;;;;7.77;6.80;;;;;;;10.75;86.01;93536.22;5044684;28;20271;-70
2022/11/21 02:41:44;;;;;;;7.90;6.93;;;;;;;10.79;85.92;93526.13;5054368;28;20508;-69
2022/11/21 02:44:28;;;;;;;7.30;6.53;;;;;;;10.82;85.45;93515.22;5057679;28;20186;-69
2022/11/21 02:46:54;;;;;;;7.13;6.22;;;;;;;10.84;85.62;93510.59;5044756;28;20186;-70
2022/11/21 02:50:08;;;;;;;7.67;6.10;;;;;;;10.85;85.21;93491.19;5052142;28;20182;-69
2022/11/21 02:52:33;;;;;;;7.07;6.33;;;;;;;10.72;85.98;93499.81;5002254;28;20203;-69
2022/11/21 02:54:58;;;;;;;6.87;5.70;;;;;;;10.82;86.04;93476.63;4994540;28;20576;-69
2022/11/21 02:57:24;;;;;;;8.43;6.55;;;;;;;10.85;85.29;93464.88;4994962;28;20571;-69
2022/11/21 02:59:49;;;;;;;8.00;7.10;;;;;;;10.79;85.39;93473.53;4994968;28;20273;-69
2022/11/21 03:02:15;;;;;;;7.13;6.47;;;;;;;10.81;86.03;93474.97;4994938;28;20199;-69
2022/11/21 03:04:40;;;;;;;6.93;5.57;;;;;;;10.92;84.36;93468.38;4993700;28;20198;-69
2022/11/21 03:07:06;;;;;;;7.27;5.97;;;;;;;10.93;83.63;93464.78;4987529;28;20206;-69
2022/11/21 03:09:31;;;;;;;6.30;5.70;;;;;;;10.99;82.75;93458.72;4993814;28;20198;-68
2022/11/21 03:11:56;;;;;;;8.00;5.73;;;;;;;10.85;83.57;93467.50;4994586;28;20195;-68
2022/11/21 03:14:22;;;;;;;7.40;6.17;;;;;;;10.86;84.37;93466.53;4994019;28;20195;-68
2022/11/21 03:16:47;;;;;;;6.27;5.50;;;;;;;10.86;84.75;93478.88;4989070;28;20654;-69
2022/11/21 03:19:13;;;;;;;5.97;5.27;;;;;;;10.83;84.70;93474.81;4994741;28;20230;-69
2022/11/21 03:21:38;;;;;;;7.10;5.37;;;;;;;10.91;84.27;93473.84;4993271;28;20203;-69
2022/11/21 03:24:04;;;;;;;5.27;4.77;;;;;;;10.92;84.00;93470.22;4992416;28;20287;-69
2022/11/21 03:26:29;;;;;;;6.27;5.03;;;;;;;10.89;83.83;93479.28;4985968;28;20250;-69
2022/11/21 03:28:55;;;;;;;5.97;4.53;;;;;;;11.03;84.18;93498.59;5023218;28;20317;-68
2022/11/21 03:31:20;;;;;;;6.80;3.73;;;;;;;11.18;82.40;93480.09;5039341;28;20189;-68
2022/11/21 03:33:46;;;;;;;4.63;2.80;;;;;;;11.11;80.26;93476.59;5043823;28;20197;-69
2022/11/21 03:36:11;;;;;;;4.17;3.17;;;;;;;11.11;80.94;93476.59;5045120;28;20269;-69
2022/11/21 03:38:36;;;;;;;4.40;3.30;;;;;;;11.12;82.42;93480.84;5045783;28;20216;-69
2022/11/21 03:41:05;;;;;;;4.97;3.50;;;;;;;11.13;83.19;93469.34;5042548;28;20217;-69
2022/11/21 03:43:30;;;;;;;5.70;3.70;;;;;;;11.13;83.72;93456.19;5041767;28;20184;-69
2022/11/21 03:45:56;;;;;;;5.13;4.23;;;;;;;11.10;83.98;93475.00;5038806;28;20193;-69
2022/11/21 03:48:21;;;;;;;5.13;3.93;;;;;;;11.24;82.67;93481.94;5041439;28;20186;-69
2022/11/21 03:50:46;;;;;;;5.63;3.73;;;;;;;11.22;81.07;93478.69;5044829;28;20189;-69
2022/11/21 03:53:12;;;;;;;3.70;2.40;;;;;;;11.16;80.85;93475.03;5043632;28;20254;-69
2022/11/21 03:55:37;;;;;;;4.97;3.03;;;;;;;11.14;80.42;93455.16;5046241;28;20268;-69
2022/11/21 03:58:03;;;;;;;7.30;3.03;;;;;;;11.15;81.03;93460.25;5043075;28;20346;-69
2022/11/21 04:00:28;;;;;;;4.27;2.73;;;;;;;11.18;81.55;93457.22;5048965;28;20639;-69
2022/11/21 04:02:54;;;;;;;3.93;3.47;;;;;;;11.26;81.30;93451.81;5050711;28;20199;-69
2022/11/21 04:05:19;;;;;;;3.77;3.00;;;;;;;11.23;81.76;93460.09;5048482;28;20890;-69
2022/11/21 04:07:45;;;;;;;5.93;3.07;;;;;;;11.22;81.79;93462.91;5034463;28;20190;-69
2022/11/21 04:10:10;;;;;;;3.13;2.13;;;;;;;11.47;80.01;93456.16;5045965;28;20199;-69
2022/11/21 04:12:36;;;;;;;4.53;2.80;;;;;;;11.35;79.20;93434.03;5061060;28;20545;-69
2022/11/21 04:15:02;;;;;;;4.00;2.95;;;;;;;11.29;79.90;93437.44;5045619;28;20190;-68
2022/11/21 04:17:27;;;;;;;3.73;2.77;;;;;;;11.26;80.96;93441.28;5045274;28;20196;-69
2022/11/21 04:19:53;;;;;;;3.90;2.87;;;;;;;11.36;79.83;93435.69;5046685;28;20219;-69
2022/11/21 04:22:18;;;;;;;3.33;2.27;;;;;;;11.31;79.46;93434.63;5048187;28;20189;-69
2022/11/21 04:24:44;;;;;;;4.83;2.80;;;;;;;11.31;79.54;93430.19;5045347;28;20195;-68
2022/11/21 04:27:09;;;;;;;4.03;2.33;;;;;;;11.32;79.51;93437.06;5034251;28;20232;-70
2022/11/21 04:29:34;;;;;;;3.50;2.40;;;;;;;11.33;79.43;93438.69;5019837;28;20190;-69
2022/11/21 04:32:00;;;;;;;4.80;2.93;;;;;;;11.34;79.36;93461.38;5020681;28;20198;-69
2022/11/21 04:34:25;;;;;;;5.30;2.63;;;;;;;11.36;79.66;93453.25;5019613;28;20190;-69
2022/11/21 04:36:50;;;;;;;5.93;2.90;;;;;;;11.39;80.08;93437.91;5018328;28;20207;-69
2022/11/21 04:39:16;;;;;;;7.40;2.90;;;;;;;11.35;80.38;93455.09;5023154;28;20207;-69
2022/11/21 04:41:41;;;;;;;5.93;2.92;;;;;;;11.37;79.64;93457.53;5017835;28;20562;-69
2022/11/21 04:44:07;;;;;;;5.27;2.23;;;;;;;11.51;75.94;93447.88;5018534;28;20201;-69
2022/11/21 04:46:32;;;;;;;4.93;2.30;;;;;;;11.35;77.33;93457.72;5017201;28;20202;-69
2022/11/21 04:48:57;;;;;;;3.73;1.93;;;;;;;11.33;78.48;93454.47;5021577;28;20217;-69
2022/11/21 04:51:23;;;;;;;4.10;2.47;;;;;;;11.33;78.69;93449.19;5021143;28;20523;-69
2022/11/21 04:53:48;;;;;;;4.97;2.53;;;;;;;11.36;79.07;93463.78;5020557;28;20932;-69
2022/11/21 04:56:15;;;;;;;3.77;2.47;;;;;;;11.30;79.61;93472.47;5014147;28;20236;-69
2022/11/21 04:58:41;;;;;;;5.00;2.83;;;;;;;11.33;79.22;93490.50;5024227;28;20182;-69
2022/11/21 05:01:08;;;;;;;7.77;3.00;;;;;;;11.31;79.71;93490.72;5024124;28;20198;-69
2022/11/21 05:03:34;;;;;;;5.50;4.33;;;;;;;11.31;80.21;93495.16;5015099;28;20245;-69
2022/11/21 05:06:00;;;;;;;6.53;4.27;;;;;;;11.38;79.63;93504.69;5016498;28;20190;-70
2022/11/21 05:08:25;;;;;;;3.83;2.80;;;;;;;11.29;79.39;93487.44;5018470;28;20197;-70
2022/11/21 05:13:34;;;;;;;6.23;2.70;;;;;;;11.08;78.92;93514.63;5022289;28;20223;-69
2022/11/21 05:16:00;;;;;;;3.13;2.47;;;;;;;11.09;79.07;93516.25;5021951;28;20777;-69
2022/11/21 05:18:25;;;;;;;3.93;2.47;;;;;;;11.04;78.03;93508.13;5023826;28;20194;-69
2022/11/21 05:20:51;;;;;;;3.47;2.27;;;;;;;11.04;78.58;93503.69;5025284;28;20210;-69
2022/11/21 05:23:16;;;;;;;2.70;2.10;;;;;;;11.09;78.59;93510.16;5024159;28;20206;-69
2022/11/21 05:25:41;;;;;;;6.20;2.93;;;;;;;11.02;78.19;93510.94;5023666;28;20186;-71
2022/11/21 05:28:07;;;;;;;3.13;2.30;;;;;;;10.96;78.42;93516.97;5024669;28;20234;-70
2022/11/21 05:30:32;;;;;;;4.47;2.43;;;;;;;10.94;77.94;93508.47;5021438;28;20246;-71
2022/11/21 05:32:58;;;;;;;3.40;2.63;;;;;;;10.79;78.46;93515.63;5022147;28;20309;-71
2022/11/21 05:35:23;;;;;;;3.57;2.73;;;;;;;10.76;79.50;93522.06;5026667;28;20186;-71
2022/11/21 05:37:54;;;;;;;2.70;2.50;;;;;;;10.72;80.03;93525.25;5026316;28;20218;-71
2022/11/21 05:40:20;;;;;;;5.47;2.60;;;;;;;10.90;79.01;93533.50;5020039;28;20205;-72
2022/11/21 05:45:29;;;;;;;4.57;2.17;;;;;;;10.88;78.86;93567.09;5020724;28;20221;-72
2022/11/21 05:47:54;;;;;;;3.23;2.20;;;;;;;10.88;77.04;93563.63;5015816;28;20215;-71
2022/11/21 05:50:20;;;;;;;3.33;2.30;;;;;;;10.90;77.63;93540.59;5019663;28;20195;-72
2022/11/21 05:52:45;;;;;;;2.83;2.07;;;;;;;10.84;77.98;93551.88;5024034;28;20187;-72
2022/11/21 05:55:10;;;;;;;2.90;1.40;;;;;;;10.91;74.77;93571.16;5021228;28;20222;-72
2022/11/21 05:57:36;;;;;;;4.20;1.30;;;;;;;10.84;73.73;93565.00;5017523;28;20187;-72
2022/11/21 06:00:02;;;;;;;5.67;1.50;;;;;;;10.77;72.21;93580.72;5023389;28;20289;-71
2022/11/21 06:05:12;;;;;;;2.37;1.27;;;;;;;10.64;71.49;93559.56;5020960;28;20189;-71
2022/11/21 06:07:37;;;;;;;2.97;1.30;;;;;;;10.36;71.48;93583.94;5025983;28;20194;-71
2022/11/21 06:10:03;;;;;;;2.80;1.07;;;;;;;10.48;71.41;93582.47;5018177;28;20186;-70
2022/11/21 06:12:28;;;;;;;2.13;1.20;;;;;;;10.33;70.55;93589.56;5023250;28;20186;-71
2022/11/21 06:14:54;;;;;;;2.33;1.10;;;;;;;10.21;71.68;93596.25;5022406;28;20543;-70
2022/11/21 06:17:19;;;;;;;2.17;1.00;;;;;;;10.31;71.39;93621.28;5025208;28;20183;-69
2022/11/21 06:19:44;;;;;;;1.93;1.00;;;;;;;10.25;70.65;93624.63;5024439;28;20202;-69
2022/11/21 06:22:10;;;;;;;1.47;0.90;;;;;;;10.10;70.67;93639.56;5022118;28;20190;-70
2022/11/21 06:24:35;;;;;;;3.70;0.90;;;;;;;10.24;69.93;93664.22;5024166;28;20194;-69
2022/11/21 06:27:01;;;;;;;1.87;1.00;;;;;;;10.14;69.53;93638.22;5029840;28;20193;-69
2022/11/21 06:29:26;;;;;;;1.20;0.90;;;;;;;10.01;69.60;93643.31;5047568;28;20294;-68
2022/11/21 06:31:54;;;;;;;1.63;1.00;;;;;;;9.79;69.75;93639.78;5049518;28;20209;-69
2022/11/21 06:34:20;;;;;;;2.17;1.27;;;;;;;9.85;69.13;93655.59;5062300;28;20217;-68
2022/11/21 06:36:45;;;;;;;1.10;0.73;;;;;;;9.87;68.90;93671.19;5047896;28;20228;-68
2022/11/21 06:39:11;;;;;;;1.43;1.03;;;;;;;9.97;68.33;93678.78;5041924;28;20623;-68
2022/11/21 06:41:36;;;;;;;1.23;0.90;;;;;;;9.92;68.00;93680.16;5050672;28;20650;-69
2022/11/21 06:44:02;;;;;;;1.20;0.87;;;;;;;9.80;68.50;93684.19;5044955;28;20188;-69
2022/11/21 06:46:27;;;;;;;1.63;0.80;;;;;;;9.83;68.66;93683.84;5048005;28;20194;-70
2022/11/21 06:48:52;;;;;;;1.80;1.10;;;;;;;9.62;69.00;93671.44;5041753;28;20193;-70
2022/11/21 06:51:20;;;;;;;1.33;0.97;;;;;;;9.76;68.35;93701.31;5060805;28;20213;-70
2022/11/21 06:53:47;;;;;;;1.00;0.90;;;;;;;9.75;68.32;93725.13;5038169;28;20658;-70
2022/11/21 06:56:14;;;;;;;1.70;0.73;;;;;;;9.45;68.32;93714.56;5040541;28;20560;-70
2022/11/21 06:58:39;;;;;;;1.40;1.17;;;;;;;9.39;68.02;93728.38;5045168;28;20194;-69
2022/11/21 07:01:08;;;;;;;1.63;1.07;;;;;;;9.28;68.56;93753.22;5048012;28;20220;-68
2022/11/21 07:03:34;;;;;;;1.03;0.93;;;;;;;9.13;69.37;93747.09;5047704;28;20224;-70
2022/11/21 07:06:01;;;;;;;1.03;1.00;;;;;;;8.85;69.10;93758.06;5044319;28;20185;-68
2022/11/21 07:08:31;;;;;;;1.50;1.10;;;;;;;8.89;69.61;93775.06;5041822;28;20189;-68
2022/11/21 07:11:01;;;;;;;1.50;1.30;;;;;;;8.84;69.31;93762.47;5050431;28;20658;-68
2022/11/21 07:13:27;;;;;;;1.20;1.10;;;;;;;8.71;69.74;93756.97;5048191;28;20215;-68
2022/11/21 07:15:54;;;;;;;1.20;1.00;;;;;;;8.69;69.59;93772.06;5046336;28;20276;-70
2022/11/21 07:18:21;;;;;;;1.93;1.37;;;;;;;8.63;69.57;93759.63;5040335;28;20186;-68
2022/11/21 07:20:47;;;;;;;3.43;3.00;;;;;;;8.72;69.97;93789.25;5049576;28;20981;-69
2022/11/21 07:23:13;;;;;;;2.30;1.30;;;;;;;8.59;70.24;93792.41;5046926;28;20653;-68
2022/11/21 07:25:39;;;;;;;1.30;1.20;;;;;;;8.67;70.41;93797.63;5042680;28;20201;-69
2022/11/21 07:28:06;;;;;;;1.70;1.20;;;;;;;8.52;70.31;93810.59;5042304;28;20242;-70
2022/11/21 07:30:33;;;;;;;3.80;1.10;;;;;;;8.54;71.27;93823.53;5041647;28;20201;-68
2022/11/21 07:33:01;;;;;;;1.37;1.17;;;;;;;8.48;71.85;93845.19;5042536;28;20194;-69
2022/11/21 07:35:27;;;;;;;1.83;1.17;;;;;;;8.25;71.31;93839.78;5039029;28;20205;-71
2022/11/21 07:37:53;;;;;;;3.53;1.90;;;;;;;8.21;72.66;93841.94;5043921;28;20197;-68
2022/11/21 07:40:19;;;;;;;2.80;1.13;;;;;;;8.21;72.51;93851.59;5037946;28;20216;-68
2022/11/21 07:42:45;;;;;;;1.60;1.13;;;;;;;8.28;72.92;93845.50;5039430;28;20204;-66
2022/11/21 07:45:11;;;;;;;2.90;1.30;;;;;;;8.37;72.82;93869.91;5042772;28;20208;-68
2022/11/21 07:47:37;;;;;;;1.70;1.33;;;;;;;8.36;73.18;93866.44;5039521;28;20252;-67
2022/11/21 07:50:03;;;;;;;1.70;1.40;;;;;;;8.22;72.88;93854.03;5041857;28;20190;-67
2022/11/21 07:52:29;;;;;;;1.60;1.20;;;;;;;8.17;72.26;93865.00;5037186;28;20248;-67
2022/11/21 07:54:55;;;;;;;2.37;1.30;;;;;;;8.10;72.27;93889.38;5040517;28;20185;-67
2022/11/21 07:57:21;;;;;;;1.10;0.90;;;;;;;7.83;72.36;93883.50;5039300;28;20224;-68
2022/11/21 07:59:47;;;;;;;1.10;1.00;;;;;;;7.86;73.21;93892.84;5043157;28;20274;-68
2022/11/21 08:02:20;;;;;;;1.50;1.40;;;;;;;8.00;72.71;93902.66;5035981;28;20253;-69
2022/11/21 08:04:47;;;;;;;1.97;1.20;;;;;;;8.02;73.04;93916.41;5042343;28;20236;-70
2022/11/21 08:07:13;;;;;;;1.93;1.30;;;;;;;7.88;72.68;93915.22;5037842;28;20189;-68
2022/11/21 08:09:39;;;;;;;2.90;2.60;;;;;;;8.06;71.88;93904.59;5040525;28;20217;-68
2022/11/21 08:12:04;;;;;;;1.63;1.17;;;;;;;7.89;72.24;93916.88;5043895;28;20216;-69
2022/11/21 08:14:30;;;;;;;2.60;1.40;;;;;;;7.97;72.72;93925.72;5043564;28;20202;-69
2022/11/21 08:16:55;;;;;;;2.17;1.80;;;;;;;7.90;72.27;93934.19;5040394;28;20189;-68
2022/11/21 08:19:20;;;;;;;1.10;0.83;;;;;;;7.88;71.36;93922.25;5035674;28;20224;-69
2022/11/21 08:21:46;;;;;;;2.60;1.67;;;;;;;7.87;71.38;93947.63;5041018;28;20186;-69
2022/11/21 08:24:13;;;;;;;1.73;1.37;;;;;;;7.92;71.72;93939.28;5037645;28;20194;-69
2022/11/21 08:26:43;;;;;;;1.47;0.80;;;;;;;8.01;70.33;93950.56;5040886;28;20202;-69
2022/11/21 08:29:09;;;;;;;0.90;0.80;;;;;;;7.72;71.10;93943.97;5027369;28;20230;-69
2022/11/21 08:31:36;;;;;;;1.00;0.90;;;;;;;7.77;71.03;93938.28;5024309;28;20186;-68
2022/11/21 08:34:01;;;;;;;0.80;0.80;;;;;;;7.78;70.91;93945.97;5024381;28;20205;-69
2022/11/21 08:36:27;;;;;;;1.20;0.90;;;;;;;7.63;71.46;93943.16;5025224;28;20199;-70
2022/11/21 08:38:52;;;;;;;1.30;1.20;;;;;;;7.87;70.88;93941.56;5024175;28;20289;-69
2022/11/21 08:44:02;;;;;;;1.60;1.20;;;;;;;7.70;71.01;93935.50;5026013;28;20224;-69
2022/11/21 08:46:28;;;;;;;1.40;1.30;;;;;;;7.94;70.77;93932.09;5006581;28;20198;-69
2022/11/21 08:48:54;;;;;;;1.30;1.20;;;;;;;7.99;70.31;93939.44;5025075;28;20194;-69
2022/11/21 08:51:20;;;;;;;1.73;1.50;;;;;;;7.97;70.95;93944.84;5025573;28;20192;-69
2022/11/21 08:53:46;;;;;;;1.93;1.60;;;;;;;7.72;71.33;93943.97;5021146;28;20194;-68
2022/11/21 08:56:11;;;;;;;2.20;2.00;;;;;;;7.97;70.63;93952.72;5020007;28;20196;-70
2022/11/21 08:58:37;;;;;;;2.20;1.80;;;;;;;7.94;70.81;93959.09;5025745;28;20206;-70
2022/11/21 09:01:02;;;;;;;1.90;1.67;;;;;;;7.95;70.94;93950.25;5025765;28;20244;-70
2022/11/21 09:03:27;;;;;;;1.37;1.10;;;;;;;8.05;69.83;93950.09;5026015;28;20209;-69
2022/11/21 09:05:56;;;;;;;1.40;1.30;;;;;;;8.21;68.82;93957.16;5022417;28;20196;-70
2022/11/21 09:08:21;;;;;;;1.17;1.07;;;;;;;8.19;69.02;93946.00;5024516;28;20195;-69
2022/11/21 09:10:47;;;;;;;1.17;1.00;;;;;;;8.23;68.92;93951.72;5021543;28;20223;-69
2022/11/21 09:13:12;;;;;;;1.40;1.00;;;;;;;8.25;68.03;93950.59;5023185;28;20242;-69
2022/11/21 09:18:21;;;;;;;1.97;1.77;;;;;;;8.12;68.82;93951.06;5020958;28;20249;-69
2022/11/21 09:20:47;;;;;;;1.63;1.40;;;;;;;7.97;69.27;93942.25;5021960;28;20218;-68
2022/11/21 09:23:14;;;;;;;1.97;1.57;;;;;;;7.98;69.36;93936.00;5026322;28;20201;-68
2022/11/21 09:25:40;;;;;;;1.67;1.30;;;;;;;7.77;69.27;93944.31;5026399;28;20241;-68
2022/11/21 09:28:07;;;;;;;1.80;1.50;;;;;;;7.82;69.03;93946.47;5016720;28;20268;-69
2022/11/21 09:30:33;;;;;;;1.33;1.23;;;;;;;7.76;70.13;93932.22;5021697;28;20213;-69
2022/11/21 09:33:13;;;;;;;1.73;1.47;;;;;;;7.78;69.53;93940.75;5024130;28;20634;-69
2022/11/21 09:35:38;;;;;;;1.33;1.23;;;;;;;8.04;69.12;93937.16;5021046;28;20217;-69
2022/11/21 09:38:04;;;;;;;1.67;1.23;;;;;;;8.00;68.91;93938.47;5016730;28;20267;-69
2022/11/21 09:40:32;;;;;;;1.30;1.20;;;;;;;7.91;69.21;93938.47;5021900;28;20344;-69
2022/11/21 09:43:02;;;;;;;1.27;1.17;;;;;;;7.88;69.92;93946.63;5017765;28;20194;-71
2022/11/21 09:45:40;;;;;;;1.10;1.00;;;;;;;7.99;68.79;93935.03;5022935;28;20194;-71
2022/11/21 09:48:32;;;;;;;1.20;1.10;;;;;;;8.26;67.71;93936.53;5018165;28;20190;-70
2022/11/21 09:51:03;;;;;;;1.27;1.17;;;;;;;8.25;67.73;93942.72;5016009;28;20194;-71
2022/11/21 09:53:36;;;;;;;2.17;1.50;;;;;;;8.33;67.83;93940.09;5022188;28;20191;-71
2022/11/21 09:56:13;;;;;;;2.10;1.87;;;;;;;8.26;68.29;93952.25;5028559;28;20200;-70
2022/11/21 09:58:38;;;;;;;1.60;1.50;;;;;;;8.21;68.81;93965.00;5023880;28;20210;-70
2022/11/21 10:01:04;;;;;;;2.00;1.73;;;;;;;7.89;69.39;93963.16;5028618;28;20206;-69
2022/11/21 10:03:35;;;;;;;2.23;1.40;;;;;;;7.72;68.55;93975.38;5028391;28;20202;-69
2022/11/21 10:06:10;;;;;;;1.43;1.20;;;;;;;7.72;69.62;93985.84;5022535;28;20257;-68
2022/11/21 10:08:48;;;;;;;1.47;1.30;;;;;;;7.66;69.85;93987.31;5026369;28;20194;-68
2022/11/21 10:11:22;;;;;;;1.67;1.37;;;;;;;7.73;70.26;93988.31;5028405;28;20182;-68
2022/11/21 10:13:57;;;;;;;1.50;1.40;;;;;;;7.62;71.13;93985.19;5026401;28;20204;-68
2022/11/21 10:16:45;;;;;;;1.77;1.67;;;;;;;7.47;72.82;93998.03;5028262;28;20190;-68
2022/11/21 10:19:19;;;;;;;2.17;1.90;;;;;;;7.66;73.14;93984.69;5022925;28;20190;-68
2022/11/21 10:22:07;;;;;;;3.53;2.07;;;;;;;7.77;73.32;93988.81;5026650;28;20193;-68
2022/11/21 10:24:56;;;;;;;2.97;2.27;;;;;;;7.66;73.77;94008.25;5025649;28;20206;-69
2022/11/21 10:27:36;;;;;;;2.70;2.40;;;;;;;7.88;73.38;94000.78;5029173;28;20209;-68
2022/11/21 10:30:13;;;;;;;2.37;2.17;;;;;;;7.82;72.59;94004.03;5032128;28;20197;-68
2022/11/21 10:32:42;;;;;;;2.57;2.37;;;;;;;8.00;72.40;94006.53;5050639;28;20212;-68
2022/11/21 10:35:36;;;;;;;3.33;3.03;;;;;;;7.94;72.25;94005.38;5045228;28;20279;-68
2022/11/21 10:38:11;;;;;;;2.80;2.50;;;;;;;8.00;71.36;94004.75;5049336;28;20212;-68
2022/11/21 10:40:40;;;;;;;3.13;2.83;;;;;;;7.85;71.79;94007.16;5038014;28;20217;-68
2022/11/21 10:46:17;;;;;;;2.70;2.50;;;;;;;7.76;71.77;93996.84;5064459;28;20231;-68
2022/11/21 10:48:58;;;;;;;2.63;2.43;;;;;;;7.72;71.23;93997.16;5048106;28;20189;-68
2022/11/21 10:51:35;;;;;;;2.60;2.40;;;;;;;7.73;71.50;94014.50;5043935;28;20188;-67
2022/11/21 10:56:58;;;;;;;2.90;2.60;;;;;;;7.75;71.40;94001.22;5062264;28;20211;-72
2022/11/21 10:59:26;;;;;;;4.17;2.63;;;;;;;7.89;71.43;94005.88;5045393;28;20213;-69
2022/11/21 11:02:22;;;;;;;3.70;2.30;;;;;;;7.82;70.49;94007.47;5045118;28;20274;-69
2022/11/21 11:04:47;;;;;;;2.93;2.53;;;;;;;7.66;71.87;94012.66;5046168;28;20223;-68
2022/11/21 11:07:24;;;;;;;3.50;2.60;;;;;;;7.83;70.63;94011.75;5041969;28;20217;-68
2022/11/21 11:09:51;;;;;;;2.53;2.17;;;;;;;7.65;70.52;94008.41;5039120;28;20269;-68
2022/11/21 11:13:32;;;;;;;2.60;2.40;;;;;;;7.81;70.70;94012.88;5048176;28;20185;-68
2022/11/21 11:15:19;;;;;;;3.43;2.00;;;;;;;7.67;70.89;94015.13;5064458;28;20252;-67
2022/11/21 11:17:50;;;;;;;2.77;2.00;;;;;;;7.54;70.70;94012.13;5048690;28;20197;-68
2022/11/21 11:20:33;;;;;;;4.03;2.97;;;;;;;7.45;72.13;94007.84;5047854;28;20212;-68
2022/11/21 11:22:59;;;;;;;2.30;2.10;;;;;;;7.88;70.83;93998.16;5047393;28;20201;-69
2022/11/21 11:25:25;;;;;;;2.90;2.07;;;;;;;8.50;69.52;94000.38;5046129;28;20200;-68
2022/11/21 11:27:51;;;;;;;2.30;2.10;;;;;;;8.60;68.65;93995.78;5044108;28;20584;-70
2022/11/21 11:30:18;;;;;;;2.20;2.00;;;;;;;8.61;68.56;93994.84;5018075;28;20191;-71
2022/11/21 11:32:44;;;;;;;2.40;2.20;;;;;;;8.32;68.82;94000.53;5019428;28;20194;-69
2022/11/21 11:35:12;;;;;;;2.23;2.03;;;;;;;8.31;69.05;94004.09;5021662;28;20198;-69
2022/11/21 11:37:40;;;;;;;2.50;1.87;;;;;;;8.31;69.63;93999.72;5017860;28;20187;-69
2022/11/21 11:40:22;;;;;;;2.37;2.03;;;;;;;8.22;68.58;93998.06;5021324;28;20329;-68
2022/11/21 11:52:45;;;;;;;2.17;1.97;;;;;;;8.61;67.01;93997.44;5021281;28;20277;-70
2022/11/21 11:55:36;;;;;;;2.97;2.13;;;;;;;8.71;66.69;93990.22;5018452;28;20197;-70
2022/11/21 11:58:10;;;;;;;4.50;4.10;;;;;;;8.80;66.54;93991.84;5019204;28;20194;-69
2022/11/21 12:00:51;;;;;;;2.20;2.00;;;;;;;8.57;66.19;93990.88;5020130;28;20215;-69
2022/11/21 12:03:40;;;;;;;2.50;1.90;;;;;;;8.84;65.17;94000.19;5039564;28;20187;-68
2022/11/21 12:06:17;;;;;;;2.20;1.80;;;;;;;9.02;64.18;93997.41;5024207;28;20261;-69
2022/11/21 12:08:53;;;;;;;3.57;2.20;;;;;;;9.01;62.77;94001.00;5020973;28;20186;-70
2022/11/21 12:17:49;;;;;;;2.13;1.93;;;;;;;8.63;64.74;94011.19;5019303;28;20245;-68